FDX1755 KIND-KIAD
Flight info
| Callsign | FDX1755 |
|---|---|
| Flight time | N/A |
| Altitude | 33000 |
| Route | MAREO5 BDOCK APE AIR J162 MGW GIBBZ5 |
| Aircraft | MD11/H-SDE1E2E3FGHIJ2J3J4J5M1RWXY/LB1D1 |
Departure
| Time | 2026-04-30 13:43 |
|---|---|
| Airport | Indianapolis International Airport (KIND) |
Arrival
| Time | N/A |
|---|---|
| Airport | Washington Dulles International Airport (KIAD) |
| Time | Latitude | Longitude | Altitude | Speed | Heading |
|---|---|---|---|---|---|
| 2026-04-30 13:07 | 39.71404 | -86.28103 | 793 ft | 0 kts | 135° |
| 2026-04-30 13:26 | 39.71424 | -86.28136 | 793 ft | 2 kts | 110° |
| 2026-04-30 13:26 | 39.71427 | -86.28175 | 793 ft | 2 kts | 77° |
| 2026-04-30 13:27 | 39.71414 | -86.28207 | 794 ft | 0 kts | 46° |
| 2026-04-30 13:28 | 39.71411 | -86.28211 | 794 ft | 0 kts | 44° |
| 2026-04-30 13:30 | 39.71415 | -86.28206 | 793 ft | 4 kts | 44° |
| 2026-04-30 13:31 | 39.71545 | -86.28050 | 792 ft | 14 kts | 39° |
| 2026-04-30 13:31 | 39.71779 | -86.27904 | 792 ft | 14 kts | 44° |
| 2026-04-30 13:32 | 39.71946 | -86.27928 | 793 ft | 16 kts | 314° |
| 2026-04-30 13:32 | 39.72043 | -86.28056 | 795 ft | 0 kts | 315° |
| 2026-04-30 13:34 | 39.72065 | -86.28085 | 796 ft | 7 kts | 314° |
| 2026-04-30 13:34 | 39.72303 | -86.28400 | 798 ft | 18 kts | 314° |
| 2026-04-30 13:35 | 39.72399 | -86.28527 | 798 ft | 17 kts | 313° |
| 2026-04-30 13:35 | 39.72548 | -86.28822 | 795 ft | 16 kts | 302° |
| 2026-04-30 13:36 | 39.72666 | -86.29071 | 793 ft | 14 kts | 303° |
| 2026-04-30 13:36 | 39.72669 | -86.29193 | 790 ft | 15 kts | 233° |
| 2026-04-30 13:36 | 39.72487 | -86.29425 | 786 ft | 18 kts | 227° |
| 2026-04-30 13:37 | 39.72384 | -86.29562 | 783 ft | 20 kts | 226° |
| 2026-04-30 13:37 | 39.72183 | -86.29819 | 778 ft | 20 kts | 225° |
| 2026-04-30 13:38 | 39.71970 | -86.30089 | 772 ft | 20 kts | 225° |
| 2026-04-30 13:38 | 39.71866 | -86.30224 | 770 ft | 21 kts | 224° |
| 2026-04-30 13:38 | 39.71641 | -86.30515 | 764 ft | 20 kts | 225° |
| 2026-04-30 13:39 | 39.71414 | -86.30798 | 759 ft | 21 kts | 225° |
| 2026-04-30 13:39 | 39.71191 | -86.31084 | 754 ft | 21 kts | 225° |
| 2026-04-30 13:40 | 39.71067 | -86.31244 | 753 ft | 23 kts | 224° |
| 2026-04-30 13:40 | 39.70956 | -86.31381 | 751 ft | 19 kts | 225° |
| 2026-04-30 13:40 | 39.70851 | -86.31517 | 750 ft | 21 kts | 225° |
| 2026-04-30 13:40 | 39.70774 | -86.31615 | 749 ft | 20 kts | 225° |
| 2026-04-30 13:41 | 39.70654 | -86.31767 | 747 ft | 15 kts | 225° |
| 2026-04-30 13:41 | 39.70576 | -86.31867 | 747 ft | 13 kts | 225° |
| 2026-04-30 13:41 | 39.70552 | -86.31944 | 746 ft | 9 kts | 291° |
| 2026-04-30 13:41 | 39.70605 | -86.32019 | 744 ft | 11 kts | 315° |
| 2026-04-30 13:42 | 39.70676 | -86.32032 | 744 ft | 11 kts | 35° |
| 2026-04-30 13:42 | 39.70747 | -86.31942 | 747 ft | 26 kts | 44° |
| 2026-04-30 13:42 | 39.71810 | -86.30628 | 790 ft | 169 kts | 40° |
| 2026-04-30 13:43 | 39.72713 | -86.29465 | 1562 ft | 170 kts | 41° |
| 2026-04-30 13:43 | 39.73520 | -86.28388 | 2517 ft | 164 kts | 41° |
| 2026-04-30 13:43 | 39.74287 | -86.27349 | 3384 ft | 159 kts | 41° |
| 2026-04-30 13:43 | 39.75040 | -86.26308 | 4124 ft | 162 kts | 41° |
| 2026-04-30 13:44 | 39.75715 | -86.24992 | 4531 ft | 194 kts | 66° |
| 2026-04-30 13:44 | 39.75982 | -86.23171 | 5356 ft | 206 kts | 78° |
| 2026-04-30 13:44 | 39.76071 | -86.21213 | 6040 ft | 227 kts | 79° |
| 2026-04-30 13:44 | 39.76196 | -86.18989 | 6781 ft | 249 kts | 77° |
| 2026-04-30 13:45 | 39.76692 | -86.14162 | 8926 ft | 274 kts | 75° |
| 2026-04-30 13:45 | 39.77024 | -86.11595 | 10070 ft | 286 kts | 75° |
| 2026-04-30 13:45 | 39.77378 | -86.08893 | 11105 ft | 304 kts | 75° |
| 2026-04-30 13:46 | 39.77770 | -86.05897 | 11782 ft | 335 kts | 76° |
| 2026-04-30 13:46 | 39.78178 | -86.02721 | 12388 ft | 366 kts | 76° |
| 2026-04-30 13:46 | 39.78606 | -85.99333 | 12930 ft | 395 kts | 77° |
| 2026-04-30 13:46 | 39.79059 | -85.95716 | 13789 ft | 414 kts | 77° |